Time;durP1;ratioP1;P1;durP2;ratioP2;P2;SDS_P1;SDS_P2;PMS_P1;PMS_P2;Temp;Humidity;BMP_temperature;BMP_pressure;BME280_temperature;BME280_humidity;BME280_pressure;Samples;Min_cycle;Max_cycle;Signal;HPM_P1;HPM_P2
2023/01/05 00:01:46;;;;;;;2.17;1.90;;;9.80;93.20;;;;;;5008282;28;20042;-74
2023/01/05 00:04:11;;;;;;;0.00;0.00;;;9.80;93.10;;;;;;5008747;28;20045;-74
2023/01/05 00:06:38;;;;;;;0.85;0.85;;;9.80;93.00;;;;;;4975227;28;20046;-73
2023/01/05 00:09:05;;;;;;;0.20;0.20;;;9.80;92.80;;;;;;5007819;28;20086;-73
2023/01/05 00:22:45;;;;;;;1.67;1.08;;;9.90;92.00;;;;;;5012949;28;20053;-73
2023/01/05 00:25:14;;;;;;;0.10;0.10;;;9.90;92.00;;;;;;4992800;28;20677;-72
2023/01/05 00:27:41;;;;;;;0.43;0.43;;;9.90;92.10;;;;;;5010684;28;20038;-73
2023/01/05 00:30:10;;;;;;;0.20;0.20;;;9.90;92.00;;;;;;5012418;28;20120;-73
2023/01/05 00:32:36;;;;;;;0.30;0.30;;;9.90;91.70;;;;;;5011663;28;20515;-74
2023/01/05 00:35:01;;;;;;;0.10;0.10;;;10.00;91.40;;;;;;5012791;28;20050;-74
2023/01/05 00:37:30;;;;;;;0.08;0.08;;;10.00;91.10;;;;;;5011477;28;20038;-73
2023/01/05 00:39:56;;;;;;;0.35;0.35;;;10.00;91.00;;;;;;5007306;28;20112;-74
2023/01/05 00:42:22;;;;;;;0.00;0.00;;;10.00;90.90;;;;;;5011809;28;20041;-73
2023/01/05 00:44:47;;;;;;;0.00;0.00;;;10.00;90.70;;;;;;5012326;28;20154;-71
2023/01/05 00:47:13;;;;;;;0.22;0.22;;;10.10;90.70;;;;;;5010853;28;20402;-73
2023/01/05 00:49:39;;;;;;;0.32;0.32;;;10.00;90.40;;;;;;4994002;28;20077;-72
2023/01/05 00:52:06;;;;;;;0.08;0.08;;;10.10;90.30;;;;;;5011368;28;20494;-72
2023/01/05 00:54:32;;;;;;;0.00;0.00;;;10.10;90.30;;;;;;4995276;28;20141;-74
2023/01/05 00:56:57;;;;;;;1.80;1.70;;;10.10;90.30;;;;;;5011909;28;20046;-72
2023/01/05 00:59:23;;;;;;;0.00;0.00;;;10.10;89.70;;;;;;5011476;28;20130;-74
2023/01/05 01:01:50;;;;;;;0.00;0.00;;;10.10;89.70;;;;;;5010917;28;20045;-72
2023/01/05 01:04:16;;;;;;;0.47;0.47;;;10.00;90.00;;;;;;4994778;28;20038;-73
2023/01/05 01:06:42;;;;;;;0.00;0.00;;;10.10;89.40;;;;;;5011440;28;20042;-73
2023/01/05 01:09:08;;;;;;;0.00;0.00;;;10.20;89.30;;;;;;4992660;28;20053;-72
2023/01/05 01:11:34;;;;;;;0.03;0.03;;;10.20;89.00;;;;;;4993902;28;20052;-72
2023/01/05 01:14:00;;;;;;;0.57;0.57;;;10.10;89.10;;;;;;5010942;28;20034;-73
2023/01/05 01:16:26;;;;;;;12.35;2.38;;;10.10;89.20;;;;;;4993540;28;20073;-72
2023/01/05 01:18:51;;;;;;;0.00;0.00;;;10.10;89.00;;;;;;5009414;28;20041;-73
2023/01/05 01:21:17;;;;;;;0.00;0.00;;;10.00;89.30;;;;;;4993669;28;20054;-73
2023/01/05 01:23:43;;;;;;;0.10;0.10;;;10.00;89.10;;;;;;4993082;28;20550;-74
2023/01/05 01:26:10;;;;;;;1.00;0.65;;;10.00;89.20;;;;;;5011758;28;20050;-74
2023/01/05 01:28:36;;;;;;;0.00;0.00;;;10.00;89.10;;;;;;4993071;28;20050;-74
2023/01/05 01:31:02;;;;;;;0.00;0.00;;;10.00;89.30;;;;;;5010496;28;20645;-74
2023/01/05 01:33:29;;;;;;;0.00;0.00;;;10.00;89.40;;;;;;5010988;28;20060;-73
2023/01/05 01:35:55;;;;;;;2.15;1.98;;;10.10;89.40;;;;;;5010908;28;20046;-73
2023/01/05 01:38:20;;;;;;;1.23;0.75;;;10.00;89.40;;;;;;5011083;28;20042;-73
2023/01/05 01:40:49;;;;;;;0.10;0.10;;;10.00;89.60;;;;;;5011105;28;20505;-73
2023/01/05 01:43:47;;;;;;;0.65;0.65;;;9.90;89.70;;;;;;5010249;28;20054;-73
2023/01/05 01:46:13;;;;;;;4.18;1.98;;;10.00;89.60;;;;;;4988044;28;20773;-72
2023/01/05 01:48:53;;;;;;;0.80;0.65;;;10.00;89.10;;;;;;5010358;28;20034;-75
2023/01/05 01:51:40;;;;;;;9.52;2.28;;;10.10;89.00;;;;;;4977122;28;20045;-74
2023/01/05 01:54:08;;;;;;;0.35;0.35;;;10.00;89.10;;;;;;5000440;28;20052;-73
2023/01/05 01:56:38;;;;;;;0.22;0.22;;;10.00;89.20;;;;;;4994082;28;20552;-73
2023/01/05 01:59:04;;;;;;;0.00;0.00;;;10.00;88.90;;;;;;4993468;28;20095;-74
2023/01/05 02:01:30;;;;;;;0.35;0.35;;;10.00;88.80;;;;;;5010711;28;20049;-74
2023/01/05 02:03:57;;;;;;;0.00;0.00;;;10.10;89.00;;;;;;4992999;28;20044;-73
2023/01/05 02:06:23;;;;;;;0.10;0.10;;;10.10;89.20;;;;;;5011106;28;20152;-73
2023/01/05 02:08:49;;;;;;;0.00;0.00;;;10.00;89.20;;;;;;4993250;28;20172;-74
2023/01/05 02:11:32;;;;;;;0.75;0.75;;;10.00;89.20;;;;;;4993270;28;20117;-73
2023/01/05 02:14:07;;;;;;;0.00;0.00;;;10.00;89.40;;;;;;5009166;28;20380;-72
2023/01/05 02:17:03;;;;;;;0.00;0.00;;;10.00;89.50;;;;;;5010621;28;20085;-73
2023/01/05 02:19:38;;;;;;;0.90;0.90;;;10.00;89.70;;;;;;5006117;28;20077;-73
2023/01/05 02:22:16;;;;;;;0.70;0.70;;;10.00;90.20;;;;;;5010443;28;20056;-72
2023/01/05 02:25:08;;;;;;;0.00;0.00;;;9.90;90.60;;;;;;5010304;28;20764;-73
2023/01/05 02:28:13;;;;;;;0.00;0.00;;;9.80;90.80;;;;;;4992939;28;20045;-73
2023/01/05 02:31:28;;;;;;;0.00;0.00;;;9.80;90.80;;;;;;5009612;28;20089;-73
2023/01/05 02:34:20;;;;;;;0.00;0.00;;;9.80;90.70;;;;;;4910410;29;20051;-73
2023/01/05 02:36:55;;;;;;;1.50;1.45;;;9.70;91.20;;;;;;5010160;28;20406;-74
2023/01/05 02:39:32;;;;;;;0.00;0.00;;;9.80;91.50;;;;;;4991598;28;20045;-73
2023/01/05 02:42:07;;;;;;;5.28;2.17;;;9.70;92.00;;;;;;5009336;28;20042;-74
2023/01/05 02:44:33;;;;;;;0.00;0.00;;;9.60;92.10;;;;;;5008735;28;20046;-73
2023/01/05 02:47:05;;;;;;;0.10;0.10;;;9.60;92.20;;;;;;5010009;28;20110;-73
2023/01/05 02:49:36;;;;;;;0.00;0.00;;;9.50;92.30;;;;;;5009650;28;20514;-73
2023/01/05 02:52:05;;;;;;;0.52;0.47;;;9.60;92.30;;;;;;4999576;28;20062;-72
2023/01/05 02:54:45;;;;;;;2.65;2.45;;;9.60;92.10;;;;;;4987566;28;20046;-74
2023/01/05 02:57:18;;;;;;;0.10;0.10;;;9.60;92.30;;;;;;4989608;28;20133;-73
2023/01/05 02:59:53;;;;;;;0.55;0.55;;;9.60;92.20;;;;;;4974318;28;20042;-74
2023/01/05 03:02:25;;;;;;;0.00;0.00;;;9.60;92.00;;;;;;5005041;28;20073;-73
2023/01/05 03:05:03;;;;;;;0.00;0.00;;;9.60;91.90;;;;;;4961094;28;20054;-74
2023/01/05 03:07:32;;;;;;;0.00;0.00;;;9.60;92.00;;;;;;4986390;28;20042;-72
2023/01/05 03:13:39;;;;;;;0.00;0.00;;;9.70;92.00;;;;;;4961634;28;20403;-74
2023/01/05 03:15:32;;;;;;;0.00;0.00;;;9.70;92.00;;;;;;4982429;28;20050;-73
2023/01/05 03:18:02;;;;;;;0.00;0.00;;;9.70;92.10;;;;;;4994774;28;20172;-72
2023/01/05 03:20:31;;;;;;;0.00;0.00;;;9.70;92.00;;;;;;4981922;28;20038;-73
2023/01/05 03:37:38;;;;;;;0.00;0.00;;;9.70;92.10;;;;;;4990552;28;20054;-74
2023/01/05 03:40:21;;;;;;;0.20;0.20;;;9.70;92.00;;;;;;5003824;28;20049;-73
2023/01/05 03:42:47;;;;;;;0.17;0.17;;;9.70;91.60;;;;;;4991093;28;20050;-74
2023/01/05 03:45:15;;;;;;;0.90;0.90;;;9.70;91.60;;;;;;4983598;28;20129;-73
2023/01/05 03:47:40;;;;;;;1.45;1.35;;;9.80;91.40;;;;;;5000970;28;20100;-73
2023/01/05 03:50:07;;;;;;;0.10;0.10;;;9.80;91.30;;;;;;4997409;28;20495;-75
2023/01/05 03:52:32;;;;;;;0.90;0.90;;;9.80;91.20;;;;;;4981351;28;20486;-73
2023/01/05 03:54:58;;;;;;;0.65;0.65;;;9.80;90.80;;;;;;5004633;28;20048;-73
2023/01/05 03:57:23;;;;;;;12.60;3.35;;;9.90;90.50;;;;;;5013031;28;20112;-73
2023/01/05 03:59:49;;;;;;;0.03;0.03;;;9.90;90.20;;;;;;4984844;28;20087;-72
2023/01/05 04:02:14;;;;;;;0.10;0.10;;;10.00;90.20;;;;;;4990775;28;20061;-72
2023/01/05 04:04:40;;;;;;;0.10;0.10;;;9.90;90.20;;;;;;4993999;28;20129;-72
2023/01/05 04:07:06;;;;;;;0.75;0.75;;;9.90;90.30;;;;;;5011661;28;20060;-73
2023/01/05 04:09:32;;;;;;;0.20;0.20;;;9.90;90.40;;;;;;4987359;28;20074;-73
2023/01/05 04:11:59;;;;;;;0.30;0.30;;;9.90;90.40;;;;;;4991692;28;20566;-73
2023/01/05 04:14:24;;;;;;;0.08;0.08;;;9.80;90.50;;;;;;5000130;28;20049;-72
2023/01/05 04:16:50;;;;;;;0.08;0.08;;;9.90;90.70;;;;;;5008063;28;20442;-72
2023/01/05 04:19:15;;;;;;;0.10;0.10;;;9.90;90.70;;;;;;4995429;28;20045;-73
2023/01/05 04:21:41;;;;;;;0.20;0.20;;;9.90;90.80;;;;;;4993697;28;20069;-73
2023/01/05 04:24:09;;;;;;;0.00;0.00;;;9.80;91.10;;;;;;4966592;28;20103;-74
2023/01/05 04:26:36;;;;;;;0.00;0.00;;;9.90;91.00;;;;;;5012152;28;20046;-73
2023/01/05 04:29:02;;;;;;;0.10;0.10;;;9.70;91.10;;;;;;4977414;28;20043;-72
2023/01/05 04:31:28;;;;;;;0.00;0.00;;;9.80;91.00;;;;;;5012586;28;20045;-74
2023/01/05 04:33:53;;;;;;;0.43;0.43;;;9.90;90.90;;;;;;4999166;28;20050;-73
2023/01/05 04:36:19;;;;;;;0.28;0.28;;;9.80;91.00;;;;;;5006888;28;20125;-72
2023/01/05 04:38:45;;;;;;;0.00;0.00;;;9.80;91.00;;;;;;5012302;28;20084;-74
2023/01/05 04:41:10;;;;;;;0.00;0.00;;;9.80;90.90;;;;;;5012190;28;20038;-74
2023/01/05 04:43:36;;;;;;;0.10;0.10;;;9.80;90.90;;;;;;4985632;28;20038;-74
2023/01/05 04:46:02;;;;;;;0.00;0.00;;;9.80;90.90;;;;;;4975028;28;20061;-74
2023/01/05 04:48:27;;;;;;;0.05;0.05;;;9.80;90.90;;;;;;5003023;28;20564;-72
2023/01/05 04:50:54;;;;;;;0.32;0.32;;;9.80;91.00;;;;;;4994492;28;20164;-73
2023/01/05 04:53:19;;;;;;;0.00;0.00;;;9.90;90.90;;;;;;4987649;28;20050;-75
2023/01/05 04:55:45;;;;;;;1.90;1.75;;;9.90;90.80;;;;;;4978434;28;20047;-72
2023/01/05 04:58:10;;;;;;;0.00;0.00;;;9.80;91.00;;;;;;4993609;28;20104;-73
2023/01/05 05:00:36;;;;;;;0.20;0.20;;;9.90;90.80;;;;;;4977124;28;20034;-74
2023/01/05 05:03:02;;;;;;;0.00;0.00;;;9.80;90.90;;;;;;4975197;28;20100;-73
2023/01/05 05:05:28;;;;;;;0.60;0.60;;;9.80;91.00;;;;;;4999396;28;20038;-73
2023/01/05 05:07:53;;;;;;;0.00;0.00;;;9.90;91.10;;;;;;4993595;28;20057;-73
2023/01/05 05:10:19;;;;;;;0.00;0.00;;;9.90;90.80;;;;;;5006321;28;20629;-75
2023/01/05 05:12:44;;;;;;;0.00;0.00;;;9.90;91.00;;;;;;4995252;28;20537;-74
2023/01/05 05:15:10;;;;;;;4.00;1.98;;;9.90;91.00;;;;;;4992644;28;20046;-73
2023/01/05 05:17:36;;;;;;;0.10;0.10;;;9.90;90.90;;;;;;5012143;28;20054;-73
2023/01/05 05:20:02;;;;;;;0.20;0.20;;;9.90;90.60;;;;;;4985085;28;20516;-73
2023/01/05 05:22:27;;;;;;;0.00;0.00;;;10.00;90.80;;;;;;5011523;28;20076;-72
2023/01/05 05:24:53;;;;;;;4.03;2.60;;;9.90;90.70;;;;;;4962175;28;20582;-74
2023/01/05 05:27:19;;;;;;;0.00;0.00;;;9.90;90.50;;;;;;4986017;28;20875;-75
2023/01/05 05:29:44;;;;;;;0.35;0.35;;;9.90;90.70;;;;;;4993299;28;20046;-73
2023/01/05 05:32:10;;;;;;;0.25;0.25;;;10.00;90.70;;;;;;4993117;28;20043;-73
2023/01/05 05:34:35;;;;;;;0.10;0.10;;;9.90;91.00;;;;;;5000308;28;20177;-73
2023/01/05 05:37:01;;;;;;;1.85;1.55;;;9.90;91.10;;;;;;5005551;28;20053;-72
2023/01/05 05:39:26;;;;;;;0.60;0.60;;;9.90;91.20;;;;;;4995170;28;20488;-73
2023/01/05 05:41:52;;;;;;;0.10;0.10;;;9.80;91.30;;;;;;5004899;28;20391;-73
2023/01/05 05:44:17;;;;;;;0.00;0.00;;;9.90;91.00;;;;;;4982273;28;20507;-74
2023/01/05 05:46:43;;;;;;;0.00;0.00;;;9.90;91.10;;;;;;5000961;28;20092;-73
2023/01/05 05:49:09;;;;;;;0.00;0.00;;;9.80;91.30;;;;;;4975267;28;20054;-74
2023/01/05 05:51:34;;;;;;;0.00;0.00;;;9.80;91.20;;;;;;5010191;28;20411;-72
2023/01/05 05:54:00;;;;;;;1.30;1.30;;;9.90;91.00;;;;;;4995363;28;20129;-74
2023/01/05 05:56:26;;;;;;;0.60;0.57;;;9.80;90.90;;;;;;5009984;28;20046;-73
2023/01/05 05:58:51;;;;;;;0.80;0.80;;;9.90;91.00;;;;;;4997997;28;20196;-72
2023/01/05 06:01:17;;;;;;;0.00;0.00;;;9.80;91.20;;;;;;4991427;28;20045;-73
2023/01/05 06:03:42;;;;;;;0.03;0.03;;;9.80;91.30;;;;;;4991274;28;20106;-73
2023/01/05 06:06:08;;;;;;;0.00;0.00;;;9.80;91.30;;;;;;4991428;28;20057;-71
2023/01/05 06:08:33;;;;;;;1.08;0.98;;;9.70;91.40;;;;;;4991092;28;20411;-73
2023/01/05 06:10:59;;;;;;;0.00;0.00;;;9.90;91.20;;;;;;4997939;28;20523;-73
2023/01/05 06:13:25;;;;;;;0.40;0.40;;;9.80;91.20;;;;;;4989343;28;20039;-72
2023/01/05 06:15:51;;;;;;;0.10;0.10;;;9.70;91.30;;;;;;4990428;28;20042;-74
2023/01/05 06:18:16;;;;;;;0.20;0.20;;;9.80;91.20;;;;;;4990741;28;20054;-71
2023/01/05 06:20:42;;;;;;;0.52;0.43;;;9.80;91.10;;;;;;4990837;28;20038;-73
2023/01/05 06:23:08;;;;;;;0.80;0.80;;;9.80;91.00;;;;;;4985658;28;20543;-73
2023/01/05 06:25:33;;;;;;;0.00;0.00;;;9.80;90.70;;;;;;4990027;28;20034;-73
2023/01/05 06:27:59;;;;;;;0.08;0.08;;;9.80;90.80;;;;;;4989890;28;20499;-73
2023/01/05 06:30:26;;;;;;;1.08;1.00;;;9.80;90.70;;;;;;4990171;28;20042;-72
2023/01/05 06:32:51;;;;;;;0.13;0.13;;;9.90;90.60;;;;;;4990089;28;20054;-73
2023/01/05 06:35:17;;;;;;;0.00;0.00;;;9.90;90.70;;;;;;4990026;28;20031;-73
2023/01/05 06:37:42;;;;;;;1.45;1.35;;;9.90;90.60;;;;;;4984584;28;20056;-72
2023/01/05 06:40:10;;;;;;;0.28;0.28;;;9.90;90.30;;;;;;4972206;28;20054;-71
2023/01/05 06:42:36;;;;;;;0.00;0.00;;;9.90;90.60;;;;;;4985035;28;20057;-71
2023/01/05 06:45:03;;;;;;;0.55;0.55;;;9.90;90.50;;;;;;4992700;28;20045;-71
2023/01/05 06:47:28;;;;;;;0.20;0.20;;;9.90;90.30;;;;;;4994704;28;20065;-72
2023/01/05 06:49:54;;;;;;;0.10;0.10;;;9.90;90.40;;;;;;4997407;28;20800;-71
2023/01/05 06:52:19;;;;;;;0.00;0.00;;;9.90;90.40;;;;;;5000493;28;20066;-72
2023/01/05 06:54:45;;;;;;;0.00;0.00;;;9.80;90.50;;;;;;5002778;28;20113;-71
2023/01/05 06:57:11;;;;;;;0.00;0.00;;;9.90;90.70;;;;;;5000768;28;20050;-72
2023/01/05 06:59:36;;;;;;;0.03;0.03;;;9.90;90.60;;;;;;5001005;28;20787;-74
2023/01/05 07:02:02;;;;;;;0.00;0.00;;;9.80;90.60;;;;;;4983837;28;20136;-74
2023/01/05 07:04:28;;;;;;;0.60;0.45;;;9.80;90.60;;;;;;4997723;28;20418;-71
2023/01/05 07:06:53;;;;;;;0.00;0.00;;;9.80;90.80;;;;;;5003229;28;20046;-73
2023/01/05 07:09:19;;;;;;;0.03;0.03;;;9.70;90.90;;;;;;5002292;28;20053;-73
2023/01/05 07:11:44;;;;;;;1.30;1.23;;;9.60;91.10;;;;;;4998430;28;20683;-73
2023/01/05 07:14:10;;;;;;;0.30;0.30;;;9.60;91.20;;;;;;4998674;28;20050;-73
2023/01/05 07:16:35;;;;;;;0.10;0.10;;;9.60;91.00;;;;;;5004103;28;20050;-73
2023/01/05 07:19:01;;;;;;;5.22;2.92;;;9.60;91.20;;;;;;5000366;28;20041;-74
2023/01/05 07:21:26;;;;;;;2.00;1.88;;;9.60;91.30;;;;;;5001641;28;20041;-74
2023/01/05 07:23:52;;;;;;;0.00;0.00;;;9.60;91.40;;;;;;5006282;28;20045;-73
2023/01/05 07:26:18;;;;;;;0.10;0.10;;;9.60;91.30;;;;;;5004593;28;20038;-72
2023/01/05 07:28:43;;;;;;;0.00;0.00;;;9.60;91.40;;;;;;5006730;28;20845;-73
2023/01/05 07:31:09;;;;;;;0.00;0.00;;;9.60;91.40;;;;;;4972666;28;20104;-74
2023/01/05 07:33:35;;;;;;;0.70;0.70;;;9.60;91.50;;;;;;4983082;28;20438;-76
2023/01/05 07:36:04;;;;;;;0.00;0.00;;;9.60;91.60;;;;;;4984656;28;20053;-75
2023/01/05 07:38:33;;;;;;;0.00;0.00;;;9.60;91.60;;;;;;4964274;28;20061;-74
2023/01/05 07:41:00;;;;;;;0.98;0.98;;;9.60;91.70;;;;;;4997262;28;20413;-74
2023/01/05 07:43:26;;;;;;;0.50;0.50;;;9.60;91.60;;;;;;4966833;28;20275;-74
2023/01/05 07:45:59;;;;;;;0.00;0.00;;;9.60;91.50;;;;;;5000184;28;20042;-73
2023/01/05 07:48:25;;;;;;;0.00;0.00;;;9.60;91.50;;;;;;4967321;28;20222;-76
2023/01/05 07:50:51;;;;;;;2.88;0.47;;;9.60;91.50;;;;;;4980791;28;20650;-74
2023/01/05 07:53:16;;;;;;;1.75;1.10;;;9.60;91.50;;;;;;4984809;28;20066;-77
2023/01/05 07:55:42;;;;;;;0.43;0.43;;;9.60;91.60;;;;;;4998199;28;20416;-77
2023/01/05 07:58:07;;;;;;;0.00;0.00;;;9.60;91.30;;;;;;4984836;28;20061;-79
2023/01/05 08:00:33;;;;;;;0.00;0.00;;;9.60;91.40;;;;;;5003423;28;20076;-78
2023/01/05 08:02:58;;;;;;;0.82;0.28;;;9.60;91.10;;;;;;5000427;28;20061;-77
2023/01/05 08:05:29;;;;;;;0.40;0.40;;;9.70;91.00;;;;;;5002914;28;20049;-77
2023/01/05 08:07:54;;;;;;;0.00;0.00;;;9.60;91.20;;;;;;4999136;28;20062;-75
2023/01/05 08:10:29;;;;;;;0.00;0.00;;;9.60;91.20;;;;;;5005788;28;20060;-78
2023/01/05 08:15:45;;;;;;;0.00;0.00;;;9.70;91.10;;;;;;4985813;28;20046;-81
2023/01/05 08:18:11;;;;;;;0.00;0.00;;;9.60;91.10;;;;;;4986099;28;20056;-78
2023/01/05 08:20:37;;;;;;;0.73;0.73;;;9.60;91.20;;;;;;5004252;28;20045;-76
2023/01/05 08:23:02;;;;;;;0.00;0.00;;;9.70;91.10;;;;;;4968478;28;20498;-75
2023/01/05 08:25:28;;;;;;;0.00;0.00;;;9.70;91.20;;;;;;5005959;28;20042;-76
2023/01/05 08:27:53;;;;;;;0.30;0.30;;;9.60;91.30;;;;;;4965650;28;20506;-77
2023/01/05 08:30:19;;;;;;;0.10;0.10;;;9.60;91.40;;;;;;4988285;28;20152;-79
2023/01/05 08:32:44;;;;;;;0.00;0.00;;;9.60;91.40;;;;;;4980019;28;20089;-76
2023/01/05 08:35:10;;;;;;;0.10;0.10;;;9.60;91.30;;;;;;5002580;28;20141;-75
2023/01/05 08:37:36;;;;;;;0.60;0.60;;;9.60;91.40;;;;;;5007380;28;20109;-75
2023/01/05 08:40:02;;;;;;;0.00;0.00;;;9.60;91.40;;;;;;5015373;28;20053;-75
2023/01/05 08:42:28;;;;;;;0.00;0.00;;;9.70;91.20;;;;;;5019937;28;20047;-78
2023/01/05 08:44:53;;;;;;;0.55;0.55;;;9.60;91.20;;;;;;4999416;28;20084;-79
2023/01/05 08:47:19;;;;;;;0.00;0.00;;;9.70;91.30;;;;;;5020259;28;20042;-75
2023/01/05 08:49:45;;;;;;;0.30;0.30;;;9.60;91.30;;;;;;5014404;28;20057;-74
2023/01/05 08:52:11;;;;;;;0.00;0.00;;;9.60;91.50;;;;;;5004081;28;20101;-76
2023/01/05 08:54:37;;;;;;;0.00;0.00;;;9.60;91.20;;;;;;5001961;28;20054;-76
2023/01/05 08:57:02;;;;;;;0.00;0.00;;;9.70;91.10;;;;;;5004878;28;20105;-77
2023/01/05 08:59:28;;;;;;;0.00;0.00;;;9.70;91.10;;;;;;4984218;28;20050;-76
2023/01/05 09:01:53;;;;;;;0.00;0.00;;;9.80;90.80;;;;;;4976418;28;20050;-76
2023/01/05 09:04:19;;;;;;;0.98;0.85;;;9.70;90.90;;;;;;4994127;28;20054;-78
2023/01/05 09:06:45;;;;;;;0.00;0.00;;;9.70;90.90;;;;;;4993939;28;20050;-76
2023/01/05 09:09:10;;;;;;;0.00;0.00;;;9.70;91.00;;;;;;4976616;28;20959;-76
2023/01/05 09:11:36;;;;;;;0.95;0.95;;;9.80;90.90;;;;;;4993394;28;20045;-76
2023/01/05 09:14:02;;;;;;;0.17;0.13;;;9.70;91.00;;;;;;4975703;28;20495;-76
2023/01/05 09:16:31;;;;;;;0.00;0.00;;;9.80;91.00;;;;;;4961331;28;20125;-76
2023/01/05 09:18:58;;;;;;;0.00;0.00;;;9.80;91.10;;;;;;4993711;28;20054;-76
2023/01/05 09:21:23;;;;;;;0.00;0.00;;;9.70;91.20;;;;;;4972852;28;20046;-73
2023/01/05 09:23:49;;;;;;;0.00;0.00;;;9.80;91.00;;;;;;4974323;28;20053;-74
2023/01/05 09:26:15;;;;;;;0.00;0.00;;;9.90;91.10;;;;;;4992526;28;20041;-73
2023/01/05 09:28:41;;;;;;;0.10;0.10;;;9.70;90.90;;;;;;4991726;28;20789;-73
2023/01/05 09:31:13;;;;;;;0.75;0.75;;;9.70;91.10;;;;;;4991564;28;21211;-74
2023/01/05 09:33:39;;;;;;;0.03;0.03;;;9.80;91.20;;;;;;4992700;28;20046;-73
2023/01/05 09:36:06;;;;;;;0.00;0.00;;;9.80;91.10;;;;;;4990035;28;20046;-73
2023/01/05 09:38:32;;;;;;;0.20;0.20;;;9.80;91.10;;;;;;4992852;28;20077;-74
2023/01/05 09:41:04;;;;;;;0.00;0.00;;;9.80;91.10;;;;;;4991781;28;20084;-74
2023/01/05 09:43:36;;;;;;;0.00;0.00;;;9.80;90.90;;;;;;4991174;28;20062;-73
2023/01/05 09:46:06;;;;;;;0.00;0.00;;;9.80;91.10;;;;;;4972389;28;20043;-73
2023/01/05 09:48:39;;;;;;;0.00;0.00;;;9.80;91.00;;;;;;4989494;28;20049;-74
2023/01/05 09:51:04;;;;;;;0.00;0.00;;;9.80;91.00;;;;;;4979858;28;20051;-73
2023/01/05 09:53:30;;;;;;;1.15;1.13;;;9.80;91.00;;;;;;4982814;28;20516;-73
2023/01/05 09:55:57;;;;;;;0.00;0.00;;;9.90;90.80;;;;;;4983358;28;20034;-73
2023/01/05 09:58:30;;;;;;;0.45;0.35;;;9.90;90.70;;;;;;4984054;28;20038;-74
2023/01/05 10:01:13;;;;;;;0.00;0.00;;;9.90;90.80;;;;;;4979813;28;20078;-72
2023/01/05 10:04:02;;;;;;;0.00;0.00;;;9.90;90.90;;;;;;4983921;28;20034;-73
2023/01/05 10:06:37;;;;;;;0.00;0.00;;;9.90;90.70;;;;;;4950127;28;20046;-73
2023/01/05 10:09:05;;;;;;;0.00;0.00;;;9.90;90.70;;;;;;4963614;28;20065;-73
2023/01/05 10:14:41;;;;;;;0.00;0.00;;;9.90;90.50;;;;;;4964644;28;20058;-72
2023/01/05 10:17:16;;;;;;;0.00;0.00;;;10.00;90.50;;;;;;4978773;28;20833;-73
2023/01/05 10:19:42;;;;;;;0.00;0.00;;;10.00;90.60;;;;;;4964801;28;20450;-72
2023/01/05 10:22:31;;;;;;;21.15;2.58;;;9.90;90.70;;;;;;4979613;28;20418;-73
2023/01/05 10:25:22;;;;;;;0.00;0.00;;;10.00;90.70;;;;;;4980656;28;20627;-73
2023/01/05 10:28:32;;;;;;;0.03;0.03;;;10.00;90.70;;;;;;4966147;28;20492;-73
2023/01/05 10:31:07;;;;;;;0.00;0.00;;;10.00;90.80;;;;;;4982877;28;20043;-73
2023/01/05 10:33:59;;;;;;;0.63;0.63;;;10.10;90.80;;;;;;4979705;28;20056;-72
2023/01/05 10:37:07;;;;;;;0.10;0.10;;;10.00;90.90;;;;;;4962456;28;20043;-73
2023/01/05 10:39:54;;;;;;;0.00;0.00;;;10.10;90.60;;;;;;4983315;28;20054;-73
2023/01/05 10:42:39;;;;;;;1.02;0.95;;;10.10;90.50;;;;;;4963102;28;20097;-72
2023/01/05 10:45:12;;;;;;;0.00;0.00;;;10.10;90.70;;;;;;4962699;28;20862;-72
2023/01/05 10:47:38;;;;;;;1.15;1.08;;;10.10;90.70;;;;;;4982665;28;20053;-72
2023/01/05 10:50:29;;;;;;;0.00;0.00;;;10.10;90.70;;;;;;4989097;28;20506;-72
2023/01/05 10:52:55;;;;;;;0.10;0.10;;;10.10;90.60;;;;;;4971931;28;20041;-72
2023/01/05 10:55:23;;;;;;;0.05;0.05;;;10.20;90.60;;;;;;5008927;28;20042;-73
2023/01/05 10:57:48;;;;;;;0.10;0.10;;;10.20;90.50;;;;;;4991258;28;20503;-72
2023/01/05 11:00:17;;;;;;;0.00;0.00;;;10.10;90.50;;;;;;5007514;28;20041;-72
2023/01/05 11:02:46;;;;;;;0.00;0.00;;;10.10;90.40;;;;;;5007932;28;20076;-72
2023/01/05 11:05:29;;;;;;;0.00;0.00;;;10.20;90.30;;;;;;4988309;28;20172;-72
2023/01/05 11:08:00;;;;;;;0.15;0.15;;;10.20;90.10;;;;;;5007630;28;20049;-73
2023/01/05 11:10:38;;;;;;;;;;;10.20;89.90;;;;;;5004658;28;20558;-73
2023/01/05 11:13:15;;;;;;;0.00;0.00;;;10.20;89.90;;;;;;5007166;28;19936;-73
2023/01/05 11:15:45;;;;;;;0.00;0.00;;;10.20;90.00;;;;;;4974488;28;20125;-75
2023/01/05 11:18:24;;;;;;;0.00;0.00;;;10.30;90.00;;;;;;5007108;28;20089;-73
2023/01/05 11:21:14;;;;;;;0.00;0.00;;;10.20;89.90;;;;;;5008160;28;20049;-73
2023/01/05 11:23:51;;;;;;;0.00;0.00;;;10.20;89.90;;;;;;5008500;28;20077;-73
2023/01/05 11:26:16;;;;;;;0.00;0.00;;;10.20;89.90;;;;;;5007558;28;20145;-72
2023/01/05 11:29:07;;;;;;;0.00;0.00;;;10.20;90.00;;;;;;5005992;28;20151;-74
2023/01/05 11:31:43;;;;;;;0.00;0.00;;;10.30;90.00;;;;;;4983466;28;20104;-74
2023/01/05 11:34:38;;;;;;;0.10;0.10;;;10.30;89.90;;;;;;4986806;28;20775;-75
2023/01/05 11:37:20;;;;;;;2.75;2.45;;;10.30;89.70;;;;;;5007510;28;20058;-74
2023/01/05 11:39:46;;;;;;;0.00;0.00;;;10.20;89.80;;;;;;5008790;28;20122;-73
2023/01/05 11:42:18;;;;;;;0.28;0.28;;;10.20;89.80;;;;;;5009040;28;20880;-72
2023/01/05 11:45:02;;;;;;;0.00;0.00;;;10.20;89.80;;;;;;5008843;28;20081;-73
2023/01/05 11:47:29;;;;;;;2.55;1.00;;;10.20;89.80;;;;;;5007390;28;20058;-75
2023/01/05 11:50:14;;;;;;;0.00;0.00;;;10.30;89.60;;;;;;4981302;28;20393;-75
2023/01/05 11:52:49;;;;;;;0.00;0.00;;;10.20;89.80;;;;;;4967412;28;20051;-75
2023/01/05 11:55:23;;;;;;;0.00;0.00;;;10.20;89.90;;;;;;4978965;28;20047;-75
2023/01/05 11:57:52;;;;;;;0.00;0.00;;;10.30;90.10;;;;;;4981899;28;20126;-74
2023/01/05 12:00:40;;;;;;;0.00;0.00;;;10.20;89.90;;;;;;4966685;28;20051;-75
2023/01/05 12:03:29;;;;;;;1.85;0.95;;;10.20;90.00;;;;;;4981497;28;20062;-76
2023/01/05 12:05:59;;;;;;;0.00;0.00;;;10.20;89.90;;;;;;4961583;28;20051;-76
2023/01/05 12:08:53;;;;;;;0.45;0.32;;;10.20;90.00;;;;;;4980102;28;20716;-77
2023/01/05 12:11:22;;;;;;;0.20;0.20;;;10.20;90.20;;;;;;4947156;28;20058;-77
2023/01/05 12:14:10;;;;;;;0.00;0.00;;;10.20;90.20;;;;;;4980604;28;20086;-76
2023/01/05 12:16:51;;;;;;;0.05;0.05;;;10.20;90.10;;;;;;4969126;28;20427;-75
2023/01/05 12:19:28;;;;;;;0.00;0.00;;;10.20;90.30;;;;;;4986374;28;20479;-76
2023/01/05 12:22:12;;;;;;;0.00;0.00;;;10.20;90.40;;;;;;4987733;28;20133;-76
2023/01/05 12:24:55;;;;;;;0.00;0.00;;;10.20;90.60;;;;;;4968818;28;20097;-76
2023/01/05 12:27:21;;;;;;;0.00;0.00;;;10.20;90.60;;;;;;4989664;28;20101;-77
2023/01/05 12:30:03;;;;;;;0.00;0.00;;;10.30;90.60;;;;;;4989756;28;20070;-77
2023/01/05 12:32:46;;;;;;;0.00;0.00;;;10.30;90.50;;;;;;4983787;28;20129;-76
2023/01/05 12:35:49;;;;;;;0.20;0.20;;;10.20;90.50;;;;;;4971364;28;20623;-76
2023/01/05 12:38:52;;;;;;;0.00;0.00;;;10.20;90.60;;;;;;4986714;28;20046;-77
2023/01/05 12:41:50;;;;;;;0.00;0.00;;;10.30;90.60;;;;;;4987818;28;20050;-76
2023/01/05 12:44:47;;;;;;;0.00;0.00;;;10.30;90.70;;;;;;4987525;28;20046;-76
2023/01/05 12:47:24;;;;;;;0.00;0.00;;;10.30;90.80;;;;;;4987382;28;20109;-76
2023/01/05 12:50:15;;;;;;;0.00;0.00;;;10.30;90.50;;;;;;4975739;28;20045;-75
2023/01/05 12:52:47;;;;;;;0.98;0.90;;;10.30;90.50;;;;;;4989391;28;20092;-75
2023/01/05 12:55:19;;;;;;;0.00;0.00;;;10.30;90.50;;;;;;4990726;28;20034;-76
2023/01/05 12:57:51;;;;;;;0.00;0.00;;;10.40;90.50;;;;;;4987328;28;20045;-76
2023/01/05 13:00:20;;;;;;;0.65;0.65;;;10.40;90.40;;;;;;5009511;28;20057;-76
2023/01/05 13:02:52;;;;;;;0.00;0.00;;;10.40;90.40;;;;;;5003069;28;20077;-75
2023/01/05 13:05:27;;;;;;;0.22;0.22;;;10.30;90.40;;;;;;4992931;28;20152;-76
2023/01/05 13:08:00;;;;;;;0.05;0.05;;;10.40;90.50;;;;;;5010783;28;20053;-75
2023/01/05 13:10:31;;;;;;;0.00;0.00;;;10.40;90.50;;;;;;5007061;28;20069;-77
2023/01/05 13:13:05;;;;;;;0.00;0.00;;;10.30;90.40;;;;;;5010871;28;20050;-76
2023/01/05 13:15:40;;;;;;;2.20;1.20;;;10.30;90.40;;;;;;4992322;28;20508;-76
2023/01/05 13:18:11;;;;;;;0.00;0.00;;;10.30;90.40;;;;;;4959604;28;20057;-77
2023/01/05 13:20:42;;;;;;;0.00;0.00;;;10.30;90.50;;;;;;4994813;28;20526;-76
2023/01/05 13:23:16;;;;;;;0.00;0.00;;;10.30;90.50;;;;;;4996718;28;20112;-76
2023/01/05 13:26:02;;;;;;;0.10;0.10;;;10.30;90.50;;;;;;4986665;28;20074;-76
2023/01/05 13:28:28;;;;;;;0.10;0.10;;;10.30;90.30;;;;;;4992880;28;20050;-76
2023/01/05 13:31:21;;;;;;;0.00;0.00;;;10.20;90.50;;;;;;4997491;28;20052;-75
2023/01/05 13:33:52;;;;;;;0.00;0.00;;;10.30;90.50;;;;;;5012565;28;20042;-76
2023/01/05 13:36:41;;;;;;;0.70;0.70;;;10.30;90.40;;;;;;5001853;28;20491;-77
2023/01/05 13:39:28;;;;;;;0.00;0.00;;;10.20;90.50;;;;;;4990588;28;20049;-77
2023/01/05 13:42:00;;;;;;;0.00;0.00;;;10.30;90.50;;;;;;4992615;28;20038;-76
2023/01/05 13:44:40;;;;;;;;;;;10.20;90.50;;;;;;4977952;28;20046;-76
2023/01/05 13:47:39;;;;;;;0.10;0.10;;;10.30;90.60;;;;;;5010255;28;19928;-75